sensor_id;sensor_type;location;lat;lon;timestamp;pressure;altitude;pressure_sealevel;temperature;humidity
38786;BME280;24535;45.508;12.252;2023-02-19T00:01:13;102532.25;;;11.59;70.25
38786;BME280;24535;45.508;12.252;2023-02-19T00:03:40;102530.41;;;11.61;70.11
38786;BME280;24535;45.508;12.252;2023-02-19T00:06:08;102525.13;;;11.61;70.04
38786;BME280;24535;45.508;12.252;2023-02-19T00:08:36;102527.63;;;11.64;70.09
38786;BME280;24535;45.508;12.252;2023-02-19T00:11:06;102526.84;;;11.62;69.48
38786;BME280;24535;45.508;12.252;2023-02-19T00:13:36;102516.44;;;11.59;70.26
38786;BME280;24535;45.508;12.252;2023-02-19T00:16:17;102516.44;;;11.59;70.25
38786;BME280;24535;45.508;12.252;2023-02-19T00:18:43;102513.84;;;11.58;70.15
38786;BME280;24535;45.508;12.252;2023-02-19T00:21:09;102512.13;;;11.57;69.70
38786;BME280;24535;45.508;12.252;2023-02-19T00:23:35;102514.69;;;11.58;70.33
38786;BME280;24535;45.508;12.252;2023-02-19T00:26:06;102507.69;;;11.57;69.79
38786;BME280;24535;45.508;12.252;2023-02-19T00:28:32;102496.28;;;11.57;70.43
38786;BME280;24535;45.508;12.252;2023-02-19T00:33:30;102504.13;;;11.58;69.73
38786;BME280;24535;45.508;12.252;2023-02-19T00:36:01;102515.41;;;11.62;70.44
38786;BME280;24535;45.508;12.252;2023-02-19T00:38:27;102503.97;;;11.63;69.86
38786;BME280;24535;45.508;12.252;2023-02-19T00:40:53;102492.47;;;11.64;70.41
38786;BME280;24535;45.508;12.252;2023-02-19T00:43:18;102498.59;;;11.64;69.70
38786;BME280;24535;45.508;12.252;2023-02-19T00:45:43;102488.81;;;11.67;69.28
38786;BME280;24535;45.508;12.252;2023-02-19T00:48:09;102485.28;;;11.68;69.76
38786;BME280;24535;45.508;12.252;2023-02-19T00:50:35;102488.69;;;11.70;69.56
38786;BME280;24535;45.508;12.252;2023-02-19T00:53:00;102487.00;;;11.69;69.84
38786;BME280;24535;45.508;12.252;2023-02-19T00:55:25;102492.19;;;11.70;69.60
38786;BME280;24535;45.508;12.252;2023-02-19T00:57:51;102486.88;;;11.72;68.92
38786;BME280;24535;45.508;12.252;2023-02-19T01:00:16;102493.03;;;11.71;69.64
38786;BME280;24535;45.508;12.252;2023-02-19T01:02:42;102492.19;;;11.70;69.83
38786;BME280;24535;45.508;12.252;2023-02-19T01:05:07;102487.75;;;11.71;68.84
38786;BME280;24535;45.508;12.252;2023-02-19T01:07:37;102486.88;;;11.72;69.13
38786;BME280;24535;45.508;12.252;2023-02-19T01:10:04;102490.34;;;11.72;69.66
38786;BME280;24535;45.508;12.252;2023-02-19T01:12:30;102492.16;;;11.72;69.58
38786;BME280;24535;45.508;12.252;2023-02-19T01:14:56;102486.00;;;11.71;69.19
38786;BME280;24535;45.508;12.252;2023-02-19T01:17:22;102484.28;;;11.70;68.67
38786;BME280;24535;45.508;12.252;2023-02-19T01:19:47;102487.84;;;11.69;68.46
38786;BME280;24535;45.508;12.252;2023-02-19T01:22:12;102486.19;;;11.67;69.05
38786;BME280;24535;45.508;12.252;2023-02-19T01:24:38;102487.91;;;11.68;68.48
38786;BME280;24535;45.508;12.252;2023-02-19T01:27:03;102490.47;;;11.69;68.54
38786;BME280;24535;45.508;12.252;2023-02-19T01:29:29;102484.34;;;11.69;68.75
38786;BME280;24535;45.508;12.252;2023-02-19T01:31:54;102479.06;;;11.69;69.30
38786;BME280;24535;45.508;12.252;2023-02-19T01:34:20;102479.84;;;11.71;68.41
38786;BME280;24535;45.508;12.252;2023-02-19T01:36:45;102475.44;;;11.71;68.71
38786;BME280;24535;45.508;12.252;2023-02-19T01:39:11;102472.72;;;11.73;69.10
38786;BME280;24535;45.508;12.252;2023-02-19T01:41:39;102478.00;;;11.73;68.66
38786;BME280;24535;45.508;12.252;2023-02-19T01:46:36;102473.50;;;11.75;68.00
38786;BME280;24535;45.508;12.252;2023-02-19T01:49:13;102466.47;;;11.75;68.24
38786;BME280;24535;45.508;12.252;2023-02-19T01:51:44;102466.31;;;11.78;68.11
38786;BME280;24535;45.508;12.252;2023-02-19T01:54:12;102461.97;;;11.77;68.04
38786;BME280;24535;45.508;12.252;2023-02-19T01:56:42;102466.31;;;11.78;68.91
38786;BME280;24535;45.508;12.252;2023-02-19T01:59:08;102467.19;;;11.79;69.03
38786;BME280;24535;45.508;12.252;2023-02-19T02:01:36;102465.47;;;11.78;68.42
38786;BME280;24535;45.508;12.252;2023-02-19T02:04:04;102454.97;;;11.76;68.62
38786;BME280;24535;45.508;12.252;2023-02-19T02:06:37;102454.13;;;11.76;68.46
38786;BME280;24535;45.508;12.252;2023-02-19T02:09:03;102446.41;;;11.71;68.82
38786;BME280;24535;45.508;12.252;2023-02-19T02:11:50;102450.03;;;11.69;68.82
38786;BME280;24535;45.508;12.252;2023-02-19T02:14:17;102445.81;;;11.64;69.14
38786;BME280;24535;45.508;12.252;2023-02-19T02:17:14;102441.50;;;11.62;69.14
38786;BME280;24535;45.508;12.252;2023-02-19T02:22:59;102442.56;;;11.58;69.51
38786;BME280;24535;45.508;12.252;2023-02-19T02:31:08;102440.22;;;11.52;69.49
38786;BME280;24535;45.508;12.252;2023-02-19T02:33:46;102429.91;;;11.46;69.93
38786;BME280;24535;45.508;12.252;2023-02-19T02:36:21;102428.41;;;11.40;69.40
38786;BME280;24535;45.508;12.252;2023-02-19T02:38:49;102417.13;;;11.36;69.41
38786;BME280;24535;45.508;12.252;2023-02-19T02:41:17;102423.38;;;11.34;70.04
38786;BME280;24535;45.508;12.252;2023-02-19T02:43:42;102417.25;;;11.33;70.54
38786;BME280;24535;45.508;12.252;2023-02-19T02:46:11;102413.75;;;11.33;70.29
38786;BME280;24535;45.508;12.252;2023-02-19T02:51:20;102396.13;;;11.33;70.42
38786;BME280;24535;45.508;12.252;2023-02-19T02:53:56;102398.72;;;11.35;70.04
38786;BME280;24535;45.508;12.252;2023-02-19T02:56:43;102397.88;;;11.34;70.31
38786;BME280;24535;45.508;12.252;2023-02-19T02:59:13;102389.88;;;11.36;70.06
38786;BME280;24535;45.508;12.252;2023-02-19T03:02:02;102387.13;;;11.39;70.24
38786;BME280;24535;45.508;12.252;2023-02-19T03:04:59;102388.19;;;11.35;70.97
38786;BME280;24535;45.508;12.252;2023-02-19T03:07:51;102378.59;;;11.32;70.16
38786;BME280;24535;45.508;12.252;2023-02-19T03:10:24;102387.44;;;11.31;70.57
38786;BME280;24535;45.508;12.252;2023-02-19T03:12:52;102380.38;;;11.32;70.27
38786;BME280;24535;45.508;12.252;2023-02-19T03:15:41;102378.59;;;11.32;70.47
38786;BME280;24535;45.508;12.252;2023-02-19T03:18:28;102377.75;;;11.32;70.73
38786;BME280;24535;45.508;12.252;2023-02-19T03:21:14;102379.53;;;11.31;70.46
38786;BME280;24535;45.508;12.252;2023-02-19T03:23:42;102372.47;;;11.32;70.72
38786;BME280;24535;45.508;12.252;2023-02-19T03:26:30;102383.03;;;11.32;70.96
38786;BME280;24535;45.508;12.252;2023-02-19T03:28:58;102372.47;;;11.32;70.58
38786;BME280;24535;45.508;12.252;2023-02-19T03:31:45;102376.88;;;11.31;70.63
38786;BME280;24535;45.508;12.252;2023-02-19T03:34:20;102372.56;;;11.30;70.79
38786;BME280;24535;45.508;12.252;2023-02-19T03:36:55;102370.75;;;11.31;70.73
38786;BME280;24535;45.508;12.252;2023-02-19T03:39:22;102353.19;;;11.30;71.10
38786;BME280;24535;45.508;12.252;2023-02-19T03:54:58;102365.00;;;11.42;71.14
38786;BME280;24535;45.508;12.252;2023-02-19T04:02:37;102353.66;;;11.39;70.83
38786;BME280;24535;45.508;12.252;2023-02-19T04:05:13;102359.78;;;11.40;70.87
38786;BME280;24535;45.508;12.252;2023-02-19T04:07:44;102358.94;;;11.39;71.04
38786;BME280;24535;45.508;12.252;2023-02-19T04:10:10;102368.50;;;11.42;71.28
38786;BME280;24535;45.508;12.252;2023-02-19T04:12:39;102373.00;;;11.40;70.73
38786;BME280;24535;45.508;12.252;2023-02-19T04:15:13;102373.97;;;11.37;70.68
38786;BME280;24535;45.508;12.252;2023-02-19T04:17:48;102377.47;;;11.38;70.88
38786;BME280;24535;45.508;12.252;2023-02-19T04:20:17;102373.13;;;11.37;70.79
38786;BME280;24535;45.508;12.252;2023-02-19T04:22:44;102378.34;;;11.38;70.59
38786;BME280;24535;45.508;12.252;2023-02-19T04:25:09;102377.47;;;11.38;70.76
38786;BME280;24535;45.508;12.252;2023-02-19T04:27:37;102377.47;;;11.38;71.01
38786;BME280;24535;45.508;12.252;2023-02-19T04:30:06;102380.09;;;11.38;70.99
38786;BME280;24535;45.508;12.252;2023-02-19T04:32:32;102373.06;;;11.38;70.87
38786;BME280;24535;45.508;12.252;2023-02-19T04:34:58;102379.25;;;11.37;70.87
38786;BME280;24535;45.508;12.252;2023-02-19T04:37:23;102368.78;;;11.36;70.62
38786;BME280;24535;45.508;12.252;2023-02-19T04:39:49;102360.06;;;11.34;70.45
38786;BME280;24535;45.508;12.252;2023-02-19T04:42:14;102354.00;;;11.32;71.37
38786;BME280;24535;45.508;12.252;2023-02-19T04:44:39;102350.56;;;11.30;71.35
38786;BME280;24535;45.508;12.252;2023-02-19T04:47:05;102342.72;;;11.28;70.77
38786;BME280;24535;45.508;12.252;2023-02-19T04:49:30;102340.22;;;11.25;70.93
38786;BME280;24535;45.508;12.252;2023-02-19T04:51:56;102349.88;;;11.26;70.96
38786;BME280;24535;45.508;12.252;2023-02-19T04:54:21;102349.91;;;11.25;71.07
38786;BME280;24535;45.508;12.252;2023-02-19T04:56:47;102348.97;;;11.26;71.44
38786;BME280;24535;45.508;12.252;2023-02-19T04:59:15;102342.84;;;11.25;71.42
38786;BME280;24535;45.508;12.252;2023-02-19T05:01:40;102335.94;;;11.23;70.97
38786;BME280;24535;45.508;12.252;2023-02-19T05:04:06;102343.00;;;11.22;71.54
38786;BME280;24535;45.508;12.252;2023-02-19T05:06:31;102346.50;;;11.23;71.73
38786;BME280;24535;45.508;12.252;2023-02-19T05:08:56;102341.16;;;11.24;71.87
38786;BME280;24535;45.508;12.252;2023-02-19T05:11:22;102338.38;;;11.27;71.71
38786;BME280;24535;45.508;12.252;2023-02-19T05:13:50;102333.97;;;11.28;71.82
38786;BME280;24535;45.508;12.252;2023-02-19T05:16:16;102331.19;;;11.31;71.63
38786;BME280;24535;45.508;12.252;2023-02-19T05:18:43;102331.97;;;11.33;71.60
38786;BME280;24535;45.508;12.252;2023-02-19T05:21:09;102326.63;;;11.34;71.68
38786;BME280;24535;45.508;12.252;2023-02-19T05:23:35;102326.56;;;11.36;71.67
38786;BME280;24535;45.508;12.252;2023-02-19T05:26:11;102327.31;;;11.38;71.29
38786;BME280;24535;45.508;12.252;2023-02-19T05:28:37;102329.97;;;11.38;71.68
38786;BME280;24535;45.508;12.252;2023-02-19T05:31:05;102328.22;;;11.38;71.73
38786;BME280;24535;45.508;12.252;2023-02-19T05:33:31;102330.78;;;11.40;71.50
38786;BME280;24535;45.508;12.252;2023-02-19T05:35:56;102331.53;;;11.42;71.28
38786;BME280;24535;45.508;12.252;2023-02-19T05:38:22;102328.84;;;11.44;71.15
38786;BME280;24535;45.508;12.252;2023-02-19T05:40:48;102331.41;;;11.45;71.28
38786;BME280;24535;45.508;12.252;2023-02-19T05:43:14;102322.56;;;11.46;71.18
38786;BME280;24535;45.508;12.252;2023-02-19T05:45:39;102335.63;;;11.49;70.88
38786;BME280;24535;45.508;12.252;2023-02-19T05:48:05;102331.16;;;11.51;71.19
38786;BME280;24535;45.508;12.252;2023-02-19T05:50:32;102329.28;;;11.53;70.62
38786;BME280;24535;45.508;12.252;2023-02-19T05:53:03;102329.25;;;11.55;70.74
38786;BME280;24535;45.508;12.252;2023-02-19T05:55:29;102331.78;;;11.56;70.39
38786;BME280;24535;45.508;12.252;2023-02-19T05:57:54;102336.13;;;11.57;70.51
38786;BME280;24535;45.508;12.252;2023-02-19T06:00:20;102315.88;;;11.58;70.45
38786;BME280;24535;45.508;12.252;2023-02-19T06:02:46;102318.47;;;11.59;69.89
38786;BME280;24535;45.508;12.252;2023-02-19T06:05:12;102315.03;;;11.57;70.49
38786;BME280;24535;45.508;12.252;2023-02-19T06:07:38;102311.44;;;11.58;70.21
38786;BME280;24535;45.508;12.252;2023-02-19T06:10:10;102300.91;;;11.58;70.07
38786;BME280;24535;45.508;12.252;2023-02-19T06:12:36;102307.91;;;11.59;70.50
38786;BME280;24535;45.508;12.252;2023-02-19T06:15:03;102309.75;;;11.57;70.18
38786;BME280;24535;45.508;12.252;2023-02-19T06:17:29;102309.75;;;11.57;70.63
38786;BME280;24535;45.508;12.252;2023-02-19T06:19:55;102310.59;;;11.58;70.88
38786;BME280;24535;45.508;12.252;2023-02-19T06:22:20;102309.69;;;11.59;70.13
38786;BME280;24535;45.508;12.252;2023-02-19T06:24:46;102321.16;;;11.58;70.59
38786;BME280;24535;45.508;12.252;2023-02-19T06:27:12;102310.69;;;11.56;70.83
38786;BME280;24535;45.508;12.252;2023-02-19T06:29:37;102307.97;;;11.58;70.79
38786;BME280;24535;45.508;12.252;2023-02-19T06:32:04;102312.38;;;11.57;70.62
38786;BME280;24535;45.508;12.252;2023-02-19T06:34:30;102316.81;;;11.57;70.19
38786;BME280;24535;45.508;12.252;2023-02-19T06:36:56;102313.19;;;11.59;70.23
38786;BME280;24535;45.508;12.252;2023-02-19T06:39:22;102320.09;;;11.62;70.08
38786;BME280;24535;45.508;12.252;2023-02-19T06:41:48;102322.72;;;11.62;70.30
38786;BME280;24535;45.508;12.252;2023-02-19T06:44:13;102327.97;;;11.63;70.66
38786;BME280;24535;45.508;12.252;2023-02-19T06:46:39;102322.59;;;11.65;70.48
38786;BME280;24535;45.508;12.252;2023-02-19T06:49:04;102313.91;;;11.63;70.63
38786;BME280;24535;45.508;12.252;2023-02-19T06:51:30;102314.69;;;11.65;69.99
38786;BME280;24535;45.508;12.252;2023-02-19T06:53:57;102311.19;;;11.64;70.69
38786;BME280;24535;45.508;12.252;2023-02-19T06:58:51;102313.75;;;11.66;70.15
38786;BME280;24535;45.508;12.252;2023-02-19T07:01:17;102323.41;;;11.67;70.38
38786;BME280;24535;45.508;12.252;2023-02-19T07:03:42;102312.88;;;11.66;70.01
38786;BME280;24535;45.508;12.252;2023-02-19T07:06:08;102314.59;;;11.67;70.77
38786;BME280;24535;45.508;12.252;2023-02-19T07:08:33;102316.38;;;11.66;70.00
38786;BME280;24535;45.508;12.252;2023-02-19T07:10:59;102315.53;;;11.66;69.95
38786;BME280;24535;45.508;12.252;2023-02-19T07:13:25;102318.97;;;11.68;70.23
38786;BME280;24535;45.508;12.252;2023-02-19T07:16:04;102314.47;;;11.70;70.08
38786;BME280;24535;45.508;12.252;2023-02-19T07:18:32;102307.41;;;11.70;70.19
38786;BME280;24535;45.508;12.252;2023-02-19T07:21:08;102300.28;;;11.72;70.88
38786;BME280;24535;45.508;12.252;2023-02-19T07:23:34;102303.78;;;11.73;70.41
38786;BME280;24535;45.508;12.252;2023-02-19T07:26:00;102316.88;;;11.74;70.28
38786;BME280;24535;45.508;12.252;2023-02-19T07:28:26;102318.53;;;11.77;70.88
38786;BME280;24535;45.508;12.252;2023-02-19T07:30:52;102325.59;;;11.76;70.85
38786;BME280;24535;45.508;12.252;2023-02-19T07:33:18;102320.31;;;11.76;70.87
38786;BME280;24535;45.508;12.252;2023-02-19T07:35:48;102330.75;;;11.79;70.11
38786;BME280;24535;45.508;12.252;2023-02-19T07:38:17;102333.44;;;11.78;69.78
38786;BME280;24535;45.508;12.252;2023-02-19T07:40:59;102335.09;;;11.80;70.38
38786;BME280;24535;45.508;12.252;2023-02-19T07:43:27;102331.53;;;11.81;69.77
38786;BME280;24535;45.508;12.252;2023-02-19T07:45:53;102329.63;;;11.85;69.56
38786;BME280;24535;45.508;12.252;2023-02-19T07:48:19;102328.66;;;11.87;69.05
38786;BME280;24535;45.508;12.252;2023-02-19T07:50:57;102325.06;;;11.88;69.46
38786;BME280;24535;45.508;12.252;2023-02-19T07:53:23;102315.34;;;11.89;69.65
38786;BME280;24535;45.508;12.252;2023-02-19T07:55:48;102319.69;;;11.90;69.51
38786;BME280;24535;45.508;12.252;2023-02-19T07:58:15;102333.72;;;11.92;69.12
38786;BME280;24535;45.508;12.252;2023-02-19T08:00:40;102330.94;;;11.95;69.23
38786;BME280;24535;45.508;12.252;2023-02-19T08:03:06;102322.91;;;11.97;69.65
38786;BME280;24535;45.508;12.252;2023-02-19T08:05:35;102320.38;;;11.95;69.60
38786;BME280;24535;45.508;12.252;2023-02-19T08:08:02;102317.72;;;11.95;69.75
38786;BME280;24535;45.508;12.252;2023-02-19T08:10:29;102325.56;;;11.97;69.98
38786;BME280;24535;45.508;12.252;2023-02-19T08:13:15;102329.06;;;11.97;69.76
38786;BME280;24535;45.508;12.252;2023-02-19T08:18:13;102342.25;;;11.97;68.34
38786;BME280;24535;45.508;12.252;2023-02-19T08:20:39;102343.19;;;11.96;68.70
38786;BME280;24535;45.508;12.252;2023-02-19T08:23:05;102338.84;;;11.95;68.84
38786;BME280;24535;45.508;12.252;2023-02-19T08:25:32;102331.78;;;11.96;69.36
38786;BME280;24535;45.508;12.252;2023-02-19T08:27:58;102338.78;;;11.97;69.62
38786;BME280;24535;45.508;12.252;2023-02-19T08:30:25;102334.34;;;11.97;69.62
38786;BME280;24535;45.508;12.252;2023-02-19T08:32:51;102327.28;;;11.98;69.59
38786;BME280;24535;45.508;12.252;2023-02-19T08:35:16;102334.19;;;12.00;69.67
38786;BME280;24535;45.508;12.252;2023-02-19T08:37:42;102331.56;;;12.00;68.84
38786;BME280;24535;45.508;12.252;2023-02-19T08:40:08;102323.63;;;12.00;69.18
38786;BME280;24535;45.508;12.252;2023-02-19T08:42:33;102333.25;;;12.01;69.63
38786;BME280;24535;45.508;12.252;2023-02-19T08:44:59;102329.78;;;12.01;69.37
38786;BME280;24535;45.508;12.252;2023-02-19T08:47:24;102334.13;;;12.02;69.39
38786;BME280;24535;45.508;12.252;2023-02-19T08:49:50;102353.53;;;12.01;69.42
38786;BME280;24535;45.508;12.252;2023-02-19T08:52:15;102360.53;;;12.02;69.17
38786;BME280;24535;45.508;12.252;2023-02-19T08:54:41;102358.81;;;12.01;69.09
38786;BME280;24535;45.508;12.252;2023-02-19T08:57:06;102348.34;;;11.99;69.43
38786;BME280;24535;45.508;12.252;2023-02-19T08:59:32;102350.06;;;12.00;69.53
38786;BME280;24535;45.508;12.252;2023-02-19T09:01:58;102343.81;;;12.01;68.98
38786;BME280;24535;45.508;12.252;2023-02-19T09:04:23;102338.69;;;11.98;69.38
38786;BME280;24535;45.508;12.252;2023-02-19T09:06:49;102336.03;;;11.98;69.03
38786;BME280;24535;45.508;12.252;2023-02-19T09:09:15;102342.19;;;11.99;69.44
38786;BME280;24535;45.508;12.252;2023-02-19T09:11:40;102348.34;;;11.99;68.88
38786;BME280;24535;45.508;12.252;2023-02-19T09:14:06;102334.19;;;12.00;69.16
38786;BME280;24535;45.508;12.252;2023-02-19T09:16:32;102333.25;;;12.01;69.25
38786;BME280;24535;45.508;12.252;2023-02-19T09:18:58;102330.50;;;12.04;69.27
38786;BME280;24535;45.508;12.252;2023-02-19T09:21:23;102328.63;;;12.06;69.93
38786;BME280;24535;45.508;12.252;2023-02-19T09:23:49;102327.63;;;12.09;69.75
38786;BME280;24535;45.508;12.252;2023-02-19T09:26:14;102323.19;;;12.09;69.56
38786;BME280;24535;45.508;12.252;2023-02-19T09:28:40;102329.28;;;12.11;69.06
38786;BME280;24535;45.508;12.252;2023-02-19T09:31:11;102324.84;;;12.12;69.36
38786;BME280;24535;45.508;12.252;2023-02-19T09:33:44;102330.03;;;12.13;69.72
38786;BME280;24535;45.508;12.252;2023-02-19T09:36:10;102330.97;;;12.12;69.31
38786;BME280;24535;45.508;12.252;2023-02-19T09:38:36;102331.84;;;12.13;68.64
38786;BME280;24535;45.508;12.252;2023-02-19T09:41:07;102330.97;;;12.12;68.56
38786;BME280;24535;45.508;12.252;2023-02-19T09:43:33;102334.56;;;12.11;68.83
38786;BME280;24535;45.508;12.252;2023-02-19T09:46:08;102346.88;;;12.11;68.71
38786;BME280;24535;45.508;12.252;2023-02-19T09:48:36;102344.25;;;12.11;68.93
38786;BME280;24535;45.508;12.252;2023-02-19T09:51:02;102345.97;;;12.12;69.27
38786;BME280;24535;45.508;12.252;2023-02-19T09:53:36;102338.91;;;12.12;69.25
38786;BME280;24535;45.508;12.252;2023-02-19T09:56:05;102333.63;;;12.12;69.08
38786;BME280;24535;45.508;12.252;2023-02-19T09:58:34;102345.75;;;12.17;69.37
38786;BME280;24535;45.508;12.252;2023-02-19T10:01:02;102339.53;;;12.18;68.63
38786;BME280;24535;45.508;12.252;2023-02-19T10:03:33;102329.91;;;12.17;68.95
38786;BME280;24535;45.508;12.252;2023-02-19T10:06:03;102334.34;;;12.16;69.13
38786;BME280;24535;45.508;12.252;2023-02-19T10:08:32;102335.19;;;12.17;69.25
38786;BME280;24535;45.508;12.252;2023-02-19T10:10:59;102337.81;;;12.17;69.22
38786;BME280;24535;45.508;12.252;2023-02-19T10:13:31;102338.69;;;12.17;69.04
38786;BME280;24535;45.508;12.252;2023-02-19T10:16:02;102329.91;;;12.17;68.70
38786;BME280;24535;45.508;12.252;2023-02-19T10:18:37;102337.81;;;12.17;68.77
38786;BME280;24535;45.508;12.252;2023-02-19T10:21:04;102333.47;;;12.16;68.73
38786;BME280;24535;45.508;12.252;2023-02-19T10:23:30;102334.25;;;12.18;68.21
38786;BME280;24535;45.508;12.252;2023-02-19T10:25:57;102329.75;;;12.20;68.48
38786;BME280;24535;45.508;12.252;2023-02-19T10:28:33;102332.41;;;12.20;68.76
38786;BME280;24535;45.508;12.252;2023-02-19T10:31:01;102345.53;;;12.21;69.24
38786;BME280;24535;45.508;12.252;2023-02-19T10:33:27;102338.47;;;12.22;68.97
38786;BME280;24535;45.508;12.252;2023-02-19T10:36:04;102331.47;;;12.21;68.70
38786;BME280;24535;45.508;12.252;2023-02-19T10:38:37;102326.19;;;12.21;68.79
38786;BME280;24535;45.508;12.252;2023-02-19T10:41:15;102329.59;;;12.23;68.60
38786;BME280;24535;45.508;12.252;2023-02-19T10:44:08;102328.75;;;12.22;68.56
38786;BME280;24535;45.508;12.252;2023-02-19T10:46:43;102329.59;;;12.23;68.04
38786;BME280;24535;45.508;12.252;2023-02-19T10:51:53;102318.16;;;12.22;68.76
38786;BME280;24535;45.508;12.252;2023-02-19T10:54:26;102312.03;;;12.22;68.08
38786;BME280;24535;45.508;12.252;2023-02-19T10:56:53;102314.53;;;12.25;68.79
38786;BME280;24535;45.508;12.252;2023-02-19T10:59:25;102304.91;;;12.24;68.34
38786;BME280;24535;45.508;12.252;2023-02-19T11:02:03;102309.25;;;12.25;68.05
38786;BME280;24535;45.508;12.252;2023-02-19T11:04:40;102311.75;;;12.28;68.47
38786;BME280;24535;45.508;12.252;2023-02-19T11:07:15;102297.59;;;12.29;69.08
38786;BME280;24535;45.508;12.252;2023-02-19T11:09:44;102298.38;;;12.31;68.76
38786;BME280;24535;45.508;12.252;2023-02-19T11:12:13;102300.09;;;12.32;69.00
38786;BME280;24535;45.508;12.252;2023-02-19T11:14:47;102294.88;;;12.30;68.85
38786;BME280;24535;45.508;12.252;2023-02-19T11:17:24;102286.94;;;12.30;68.16
38786;BME280;24535;45.508;12.252;2023-02-19T11:19:52;102282.69;;;12.28;69.09
38786;BME280;24535;45.508;12.252;2023-02-19T11:22:39;102280.19;;;12.25;68.79
38786;BME280;24535;45.508;12.252;2023-02-19T11:27:35;102274.09;;;12.23;68.63
38786;BME280;24535;45.508;12.252;2023-02-19T11:33:23;102273.34;;;12.21;68.67
38786;BME280;24535;45.508;12.252;2023-02-19T11:35:58;102261.84;;;12.22;69.09
38786;BME280;24535;45.508;12.252;2023-02-19T11:38:25;102270.63;;;12.22;68.60
38786;BME280;24535;45.508;12.252;2023-02-19T11:46:41;102251.03;;;12.26;68.94
38786;BME280;24535;45.508;12.252;2023-02-19T11:49:15;102243.91;;;12.28;68.71
38786;BME280;24535;45.508;12.252;2023-02-19T12:22:28;102220.41;;;12.40;68.27
38786;BME280;24535;45.508;12.252;2023-02-19T12:27:37;102217.63;;;12.43;69.68
38786;BME280;24535;45.508;12.252;2023-02-19T12:38:30;102199.81;;;12.46;69.60
38786;BME280;24535;45.508;12.252;2023-02-19T12:41:09;102182.97;;;12.49;68.90
38786;BME280;24535;45.508;12.252;2023-02-19T12:43:44;102192.50;;;12.51;69.06
38786;BME280;24535;45.508;12.252;2023-02-19T12:49:11;102186.06;;;12.57;67.72
38786;BME280;24535;45.508;12.252;2023-02-19T12:51:48;102190.31;;;12.59;68.68
38786;BME280;24535;45.508;12.252;2023-02-19T12:54:26;102183.19;;;12.61;67.80
38786;BME280;24535;45.508;12.252;2023-02-19T13:12:37;102187.22;;;12.69;66.34
38786;BME280;24535;45.508;12.252;2023-02-19T13:15:17;102188.06;;;12.69;65.98
38786;BME280;24535;45.508;12.252;2023-02-19T13:17:49;102179.28;;;12.69;67.08
38786;BME280;24535;45.508;12.252;2023-02-19T13:23:24;102176.63;;;12.69;66.50
38786;BME280;24535;45.508;12.252;2023-02-19T13:37:04;102146.63;;;12.70;66.50
38786;BME280;24535;45.508;12.252;2023-02-19T13:39:30;102139.44;;;12.72;66.87
38786;BME280;24535;45.508;12.252;2023-02-19T13:41:57;102134.00;;;12.75;66.06
38786;BME280;24535;45.508;12.252;2023-02-19T13:44:29;102132.13;;;12.77;65.90
38786;BME280;24535;45.508;12.252;2023-02-19T13:46:56;102123.25;;;12.78;65.76
38786;BME280;24535;45.508;12.252;2023-02-19T13:51:57;102133.50;;;12.84;65.90
38786;BME280;24535;45.508;12.252;2023-02-19T13:54:29;102133.34;;;12.87;65.21
38786;BME280;24535;45.508;12.252;2023-02-19T13:59:52;102139.22;;;12.92;64.89
38786;BME280;24535;45.508;12.252;2023-02-19T14:02:23;102145.38;;;12.93;65.31
38786;BME280;24535;45.508;12.252;2023-02-19T14:04:57;102145.38;;;12.93;65.38
38786;BME280;24535;45.508;12.252;2023-02-19T14:09:56;102138.22;;;12.95;64.83
38786;BME280;24535;45.508;12.252;2023-02-19T14:12:31;102142.56;;;12.96;64.81
38786;BME280;24535;45.508;12.252;2023-02-19T14:18:00;102131.97;;;12.96;65.22
38786;BME280;24535;45.508;12.252;2023-02-19T14:23:16;102121.41;;;12.96;65.44
38786;BME280;24535;45.508;12.252;2023-02-19T14:25:54;102133.78;;;12.95;65.14
38786;BME280;24535;45.508;12.252;2023-02-19T14:28:33;102141.81;;;12.94;65.85
38786;BME280;24535;45.508;12.252;2023-02-19T14:31:27;102139.16;;;12.94;65.17
38786;BME280;24535;45.508;12.252;2023-02-19T14:34:02;102133.09;;;12.92;64.62
38786;BME280;24535;45.508;12.252;2023-02-19T14:36:45;102136.56;;;12.92;65.30
38786;BME280;24535;45.508;12.252;2023-02-19T14:41:41;102127.78;;;12.92;65.17
38786;BME280;24535;45.508;12.252;2023-02-19T14:44:23;102134.97;;;12.90;65.32
38786;BME280;24535;45.508;12.252;2023-02-19T14:47:05;102136.75;;;12.89;64.34
38786;BME280;24535;45.508;12.252;2023-02-19T14:52:33;102127.88;;;12.90;65.80
38786;BME280;24535;45.508;12.252;2023-02-19T14:57:28;102143.75;;;12.90;65.34
38786;BME280;24535;45.508;12.252;2023-02-19T15:00:00;102135.81;;;12.90;65.38
38786;BME280;24535;45.508;12.252;2023-02-19T15:02:28;102146.41;;;12.90;64.98
38786;BME280;24535;45.508;12.252;2023-02-19T15:04:54;102139.41;;;12.89;65.42
38786;BME280;24535;45.508;12.252;2023-02-19T15:07:24;102144.75;;;12.87;65.57
38786;BME280;24535;45.508;12.252;2023-02-19T15:09:51;102155.28;;;12.89;65.79
38786;BME280;24535;45.508;12.252;2023-02-19T15:12:24;102162.28;;;12.90;65.37
38786;BME280;24535;45.508;12.252;2023-02-19T15:14:53;102166.78;;;12.88;65.22
38786;BME280;24535;45.508;12.252;2023-02-19T15:17:29;102164.13;;;12.88;66.05
38786;BME280;24535;45.508;12.252;2023-02-19T15:19:58;102171.31;;;12.86;66.11
38786;BME280;24535;45.508;12.252;2023-02-19T15:22:28;102156.44;;;12.83;66.16